Time;durP1;ratioP1;P1;durP2;ratioP2;P2;SDS_P1;SDS_P2;PMS_P1;PMS_P2;Temp;Humidity;BMP_temperature;BMP_pressure;BME280_temperature;BME280_humidity;BME280_pressure;Samples;Min_cycle;Max_cycle;Signal;HPM_P1;HPM_P2
2023/06/29 00:00:43;;;;;;;2.07;1.97;;;;;;;-146.25;100.00;57403.91;5027231;28;20677;-83
2023/06/29 00:03:11;;;;;;;2.70;1.67;;;;;;;-146.25;100.00;57403.91;5028547;28;20208;-83
2023/06/29 00:05:40;;;;;;;2.13;2.03;;;;;;;-146.25;100.00;57403.91;5042641;28;20318;-84
2023/06/29 00:08:07;;;;;;;2.63;2.50;;;;;;;-146.25;100.00;57403.91;5046839;28;20218;-83
2023/06/29 00:10:34;;;;;;;1.90;1.80;;;;;;;-146.25;100.00;57403.91;5047743;28;20292;-83
2023/06/29 00:13:01;;;;;;;3.67;1.97;;;;;;;-146.25;100.00;57403.91;5046371;28;20223;-83
2023/06/29 00:15:29;;;;;;;3.00;1.63;;;;;;;-146.25;100.00;57403.91;5048755;28;20280;-83
2023/06/29 00:17:57;;;;;;;1.73;1.63;;;;;;;-146.25;100.00;57403.91;5051101;28;20761;-84
2023/06/29 00:20:28;;;;;;;2.87;1.97;;;;;;;-146.25;100.00;57403.91;5049362;28;20199;-84
2023/06/29 00:22:55;;;;;;;2.57;2.37;;;;;;;-146.25;100.00;57403.91;5050842;28;20263;-84
2023/06/29 00:25:22;;;;;;;3.23;1.90;;;;;;;-146.25;100.00;57403.91;5050845;28;20281;-84
2023/06/29 00:27:49;;;;;;;4.43;2.50;;;;;;;-146.25;100.00;57403.91;5050481;28;20483;-83
2023/06/29 00:30:16;;;;;;;2.00;1.90;;;;;;;-146.25;100.00;57403.91;5050418;28;20200;-84
2023/06/29 00:32:44;;;;;;;1.93;1.73;;;;;;;-146.25;100.00;57403.91;5050811;28;20205;-84
2023/06/29 00:35:11;;;;;;;2.23;2.13;;;;;;;-146.25;100.00;57403.91;5050408;28;20720;-85
2023/06/29 00:37:38;;;;;;;2.37;2.23;;;;;;;-146.25;100.00;57403.91;5050367;28;20231;-84
2023/06/29 00:40:06;;;;;;;2.27;1.67;;;;;;;-146.25;100.00;57403.91;5050595;28;20311;-84
2023/06/29 00:42:33;;;;;;;1.73;1.63;;;;;;;-146.25;100.00;57403.91;5050449;28;20202;-82
2023/06/29 00:45:00;;;;;;;2.10;2.00;;;;;;;-146.25;100.00;57403.91;5050807;28;20243;-84
2023/06/29 00:47:27;;;;;;;2.00;1.80;;;;;;;-146.25;100.00;57403.91;5049959;28;20279;-83
2023/06/29 00:49:55;;;;;;;2.10;1.90;;;;;;;-146.25;100.00;57403.91;5048803;28;20704;-84
2023/06/29 00:52:23;;;;;;;1.87;1.77;;;;;;;-146.25;100.00;57403.91;5049359;28;20203;-85
2023/06/29 00:54:50;;;;;;;4.07;1.63;;;;;;;-146.25;100.00;57403.91;5050760;28;20207;-85
2023/06/29 00:57:18;;;;;;;2.27;2.07;;;;;;;-146.25;100.00;57403.91;5050102;28;20241;-83
2023/06/29 00:59:45;;;;;;;2.87;1.77;;;;;;;-146.25;100.00;57403.91;5049638;28;20205;-85
2023/06/29 01:02:14;;;;;;;1.97;1.80;;;;;;;-146.25;100.00;57403.91;5049944;28;20226;-83
2023/06/29 01:04:41;;;;;;;2.50;2.20;;;;;;;-146.25;100.00;57403.91;5050121;28;20244;-83
2023/06/29 01:07:18;;;;;;;2.00;1.90;;;;;;;-146.25;100.00;57403.91;5049937;28;20256;-83
2023/06/29 01:09:47;;;;;;;1.57;1.47;;;;;;;-146.25;100.00;57403.91;5049076;28;20216;-83
2023/06/29 01:12:14;;;;;;;1.87;1.77;;;;;;;-146.25;100.00;57403.91;5047870;28;20227;-84
2023/06/29 01:14:43;;;;;;;2.10;2.00;;;;;;;-146.25;100.00;57403.91;5049520;28;20279;-85
2023/06/29 01:17:13;;;;;;;2.00;1.90;;;;;;;-146.25;100.00;57403.91;5049277;28;20200;-84
2023/06/29 01:19:43;;;;;;;2.00;1.77;;;;;;;-146.25;100.00;57403.91;5049384;28;20204;-84
2023/06/29 01:22:16;;;;;;;2.00;1.90;;;;;;;-146.25;100.00;57403.91;5049750;28;20349;-84
2023/06/29 01:24:46;;;;;;;2.73;1.93;;;;;;;-146.25;100.00;57403.91;5049830;28;20590;-83
2023/06/29 01:27:14;;;;;;;2.37;2.20;;;;;;;-146.25;100.00;57403.91;5048927;28;20319;-84
2023/06/29 01:29:41;;;;;;;5.33;2.23;;;;;;;-146.25;100.00;57403.91;5049551;28;20620;-85
2023/06/29 01:32:10;;;;;;;1.50;1.40;;;;;;;-146.25;100.00;57403.91;5049134;28;20233;-85
2023/06/29 01:34:38;;;;;;;2.27;2.13;;;;;;;-146.25;100.00;57403.91;5049240;28;20191;-85
2023/06/29 01:37:10;;;;;;;1.90;1.80;;;;;;;-146.25;100.00;57403.91;5049615;28;20200;-84
2023/06/29 01:39:44;;;;;;;2.10;2.00;;;;;;;-146.25;100.00;57403.91;5049165;28;20187;-84
2023/06/29 01:42:14;;;;;;;2.23;2.03;;;;;;;-146.25;100.00;57403.91;5048989;28;20745;-85
2023/06/29 01:44:41;;;;;;;2.20;2.00;;;;;;;-146.25;100.00;57403.91;5048982;28;20582;-85
2023/06/29 01:47:09;;;;;;;2.30;2.20;;;;;;;-146.25;100.00;57403.91;5049224;28;20246;-84
2023/06/29 01:49:37;;;;;;;2.00;1.90;;;;;;;-146.25;100.00;57403.91;5048752;28;20292;-84
2023/06/29 01:52:06;;;;;;;3.17;2.80;;;;;;;-146.25;100.00;57403.91;5048298;28;20197;-85
2023/06/29 01:54:33;;;;;;;3.20;2.10;;;;;;;-146.25;100.00;57403.91;5048981;28;20218;-83
2023/06/29 01:57:00;;;;;;;3.33;2.07;;;;;;;-146.25;100.00;57403.91;5048449;28;20267;-85
2023/06/29 01:59:29;;;;;;;2.33;2.13;;;;;;;-146.25;100.00;57403.91;5049619;28;20468;-85
2023/06/29 02:01:55;;;;;;;2.23;2.13;;;;;;;-146.25;100.00;57403.91;5048484;28;20677;-84
2023/06/29 02:04:22;;;;;;;2.27;2.07;;;;;;;-146.25;100.00;57403.91;5048836;28;20642;-84
2023/06/29 02:06:49;;;;;;;2.50;2.30;;;;;;;-146.25;100.00;57403.91;5048300;28;20690;-85
2023/06/29 02:09:16;;;;;;;2.93;1.90;;;;;;;-146.25;100.00;57403.91;5047781;28;20659;-83
2023/06/29 02:11:43;;;;;;;2.73;2.53;;;;;;;-146.25;100.00;57403.91;5047105;28;20244;-83
2023/06/29 02:14:10;;;;;;;3.50;2.97;;;;;;;-146.25;100.00;57403.91;5070547;28;20203;-85
2023/06/29 02:16:39;;;;;;;3.23;2.47;;;;;;;-146.25;100.00;57403.91;5064585;28;20245;-85
2023/06/29 02:19:06;;;;;;;4.00;3.13;;;;;;;-146.25;100.00;57403.91;5049685;28;20228;-85
2023/06/29 02:21:33;;;;;;;2.80;2.57;;;;;;;-146.25;100.00;57403.91;5049346;28;20265;-84
2023/06/29 02:24:00;;;;;;;2.43;2.17;;;;;;;-146.25;100.00;57403.91;5049424;28;20213;-85
2023/06/29 02:26:27;;;;;;;2.37;2.23;;;;;;;-146.25;100.00;57403.91;5048105;28;20228;-84
2023/06/29 02:28:54;;;;;;;3.50;3.20;;;;;;;-146.25;100.00;57403.91;5049117;28;20204;-85
2023/06/29 02:31:21;;;;;;;3.20;2.70;;;;;;;-146.25;100.00;57403.91;5049182;28;20209;-85
2023/06/29 02:33:51;;;;;;;3.00;2.80;;;;;;;-146.25;100.00;57403.91;5048108;28;20207;-84
2023/06/29 02:36:20;;;;;;;3.63;2.70;;;;;;;-146.25;100.00;57403.91;5047804;28;20195;-84
2023/06/29 02:38:47;;;;;;;2.63;2.43;;;;;;;-146.25;100.00;57403.91;5048434;28;20235;-84
2023/06/29 02:41:14;;;;;;;3.47;3.17;;;;;;;-146.25;100.00;57403.91;5049995;28;20209;-84
2023/06/29 02:43:41;;;;;;;2.53;2.33;;;;;;;-146.25;100.00;57403.91;5049481;28;20649;-85
2023/06/29 02:46:08;;;;;;;4.10;2.87;;;;;;;-146.25;100.00;57403.91;5049322;28;20266;-85
2023/06/29 02:48:35;;;;;;;2.47;2.37;;;;;;;-146.25;100.00;57403.91;5046872;28;20552;-84
2023/06/29 02:51:05;;;;;;;3.03;2.73;;;;;;;-146.25;100.00;57403.91;5048352;28;20246;-85
2023/06/29 02:53:32;;;;;;;3.57;2.87;;;;;;;-146.25;100.00;57403.91;5049250;28;20254;-84
2023/06/29 02:55:59;;;;;;;2.37;2.17;;;;;;;-146.25;100.00;57403.91;5046935;28;20696;-85
2023/06/29 02:58:25;;;;;;;3.30;2.33;;;;;;;-146.25;100.00;57403.91;5047807;28;20664;-85
2023/06/29 03:00:52;;;;;;;3.50;3.20;;;;;;;-146.25;100.00;57403.91;5047795;28;20225;-85
2023/06/29 03:03:20;;;;;;;5.90;3.27;;;;;;;-146.25;100.00;57403.91;5047651;28;20209;-85
2023/06/29 03:05:47;;;;;;;3.23;3.03;;;;;;;-146.25;100.00;57403.91;5047796;28;20264;-85
2023/06/29 03:08:15;;;;;;;2.43;2.07;;;;;;;-146.25;100.00;57403.91;5048071;28;20204;-84
2023/06/29 03:10:42;;;;;;;5.27;3.47;;;;;;;-146.25;100.00;57403.91;5047411;28;20716;-84
2023/06/29 03:13:09;;;;;;;3.73;2.47;;;;;;;-146.25;100.00;57403.91;5047584;28;20305;-84
2023/06/29 03:15:36;;;;;;;4.27;3.00;;;;;;;-146.25;100.00;57403.91;5047409;28;20859;-84
2023/06/29 03:18:03;;;;;;;3.00;2.80;;;;;;;-146.25;100.00;57403.91;5048244;28;20197;-84
2023/06/29 03:20:30;;;;;;;3.37;3.07;;;;;;;-146.25;100.00;57403.91;5047114;28;20295;-85
2023/06/29 03:22:57;;;;;;;2.57;2.37;;;;;;;-146.25;100.00;57403.91;5048206;28;20195;-86
2023/06/29 03:25:25;;;;;;;3.27;2.97;;;;;;;-146.25;100.00;57403.91;5047911;28;20261;-84
2023/06/29 03:27:52;;;;;;;6.13;3.53;;;;;;;-146.25;100.00;57403.91;5047886;28;20215;-85
2023/06/29 03:30:19;;;;;;;5.40;3.63;;;;;;;-146.25;100.00;57403.91;5050669;28;20203;-85
2023/06/29 03:32:46;;;;;;;4.10;3.67;;;;;;;-146.25;100.00;57403.91;5047299;28;20645;-84
2023/06/29 03:35:13;;;;;;;3.00;2.75;;;;;;;-146.25;100.00;57403.91;5047164;28;20213;-84
2023/06/29 03:37:40;;;;;;;6.05;3.53;;;;;;;-146.25;100.00;57403.91;5047493;28;20285;-85
2023/06/29 03:40:09;;;;;;;3.25;2.95;;;;;;;-146.25;100.00;57403.91;5047237;28;20204;-86
2023/06/29 03:42:37;;;;;;;2.97;2.63;;;;;;;-146.25;100.00;57403.91;5047367;28;20619;-85
2023/06/29 03:45:04;;;;;;;3.05;2.90;;;;;;;-146.25;100.00;57403.91;5048050;28;20199;-85
2023/06/29 03:47:32;;;;;;;2.53;2.42;;;;;;;-146.25;100.00;57403.91;5046894;28;20284;-85
2023/06/29 03:49:58;;;;;;;3.92;2.80;;;;;;;-146.25;100.00;57403.91;5048422;28;20239;-86
2023/06/29 03:52:25;;;;;;;2.50;2.40;;;;;;;-146.25;100.00;57403.91;5051103;28;20199;-85
2023/06/29 03:54:53;;;;;;;2.78;2.60;;;;;;;-146.25;100.00;57403.91;5051940;28;20225;-86
2023/06/29 03:57:19;;;;;;;2.55;2.45;;;;;;;-146.25;100.00;57403.91;5050656;28;20208;-85
2023/06/29 03:59:48;;;;;;;2.90;2.75;;;;;;;-146.25;100.00;57403.91;5052091;28;20238;-85
2023/06/29 04:02:15;;;;;;;2.88;2.67;;;;;;;-146.25;100.00;57403.91;5050682;28;20196;-85
2023/06/29 04:04:42;;;;;;;3.55;2.30;;;;;;;-146.25;100.00;57403.91;5051267;28;20200;-85
2023/06/29 04:07:09;;;;;;;2.65;2.50;;;;;;;-146.25;100.00;57403.91;5051498;28;20230;-85
2023/06/29 04:09:36;;;;;;;2.40;2.30;;;;;;;-146.25;100.00;57403.91;5050763;28;20211;-85
2023/06/29 04:12:03;;;;;;;2.88;2.67;;;;;;;-146.25;100.00;57403.91;5049950;28;20302;-86
2023/06/29 04:14:30;;;;;;;3.53;3.00;;;;;;;-146.25;100.00;57403.91;5051868;28;20200;-86
2023/06/29 04:16:58;;;;;;;2.60;2.50;;;;;;;-146.25;100.00;57403.91;5051085;28;20581;-85
2023/06/29 04:19:25;;;;;;;3.00;2.80;;;;;;;-146.25;100.00;57403.91;5050227;28;20211;-86
2023/06/29 04:21:52;;;;;;;2.53;2.42;;;;;;;-146.25;100.00;57403.91;5050791;28;20218;-84
2023/06/29 04:24:19;;;;;;;2.40;2.30;;;;;;;-146.25;100.00;57403.91;5051037;28;20206;-86
2023/06/29 04:26:46;;;;;;;3.53;2.67;;;;;;;-146.25;100.00;57403.91;5050280;28;20231;-86
2023/06/29 04:29:13;;;;;;;2.70;2.60;;;;;;;-146.25;100.00;57403.91;5050521;28;20203;-86
2023/06/29 04:31:40;;;;;;;4.30;3.00;;;;;;;-146.25;100.00;57403.91;5050478;28;20196;-85
2023/06/29 04:34:09;;;;;;;2.83;2.72;;;;;;;-146.25;100.00;57403.91;5050297;28;20239;-87
2023/06/29 04:36:35;;;;;;;2.55;2.45;;;;;;;-146.25;100.00;57403.91;5050588;28;20202;-85
2023/06/29 04:39:03;;;;;;;3.78;3.50;;;;;;;-146.25;100.00;57403.91;5049598;28;20200;-86
2023/06/29 04:41:33;;;;;;;3.58;3.30;;;;;;;-146.25;100.00;57403.91;5050748;28;20195;-84
2023/06/29 04:44:01;;;;;;;4.07;3.78;;;;;;;-146.25;100.00;57403.91;5051338;28;20565;-86
2023/06/29 04:46:29;;;;;;;3.60;3.30;;;;;;;-146.25;100.00;57403.91;5049885;28;20237;-86
2023/06/29 04:48:55;;;;;;;3.50;3.30;;;;;;;-146.25;100.00;57403.91;5050145;28;20286;-86
2023/06/29 04:51:25;;;;;;;3.63;3.33;;;;;;;-146.25;100.00;57403.91;5050247;28;20517;-86
2023/06/29 04:53:52;;;;;;;3.03;2.83;;;;;;;-146.25;100.00;57403.91;5049241;28;20592;-86
2023/06/29 04:56:19;;;;;;;3.13;2.92;;;;;;;-146.25;100.00;57403.91;5050273;28;20591;-85
2023/06/29 04:58:46;;;;;;;3.55;3.25;;;;;;;-146.25;100.00;57403.91;5051688;28;20526;-86
2023/06/29 05:01:13;;;;;;;2.85;2.75;;;;;;;-146.25;100.00;57403.91;5050245;28;20451;-86
2023/06/29 05:03:40;;;;;;;6.32;3.30;;;;;;;-146.25;100.00;57403.91;5050986;28;20642;-86
2023/06/29 05:06:07;;;;;;;3.70;3.40;;;;;;;-146.25;100.00;57403.91;5050798;28;20384;-87
2023/06/29 05:08:36;;;;;;;3.85;3.58;;;;;;;-146.25;100.00;57403.91;5050524;28;20200;-86
2023/06/29 05:11:03;;;;;;;3.58;3.28;;;;;;;-146.25;100.00;57403.91;5050667;28;20211;-86
2023/06/29 05:13:32;;;;;;;3.80;3.50;;;;;;;-146.25;100.00;57403.91;5050568;28;20252;-86
2023/06/29 05:16:00;;;;;;;4.65;3.08;;;;;;;-146.25;100.00;57403.91;5050193;28;20207;-85
2023/06/29 05:18:27;;;;;;;3.53;3.33;;;;;;;-146.25;100.00;57403.91;5051067;28;20245;-86
2023/06/29 05:20:54;;;;;;;3.85;3.60;;;;;;;-146.25;100.00;57403.91;5051974;28;20625;-86
2023/06/29 05:23:21;;;;;;;3.58;3.38;;;;;;;-146.25;100.00;57403.91;5050427;28;20282;-86
2023/06/29 05:25:50;;;;;;;3.28;3.10;;;;;;;-146.25;100.00;57403.91;5049889;28;20280;-85
2023/06/29 05:28:18;;;;;;;4.07;3.63;;;;;;;-146.25;100.00;57403.91;5049492;28;20206;-84
2023/06/29 05:30:45;;;;;;;3.72;3.53;;;;;;;-146.25;100.00;57403.91;5049537;28;20249;-85
2023/06/29 05:33:13;;;;;;;3.80;3.50;;;;;;;-146.25;100.00;57403.91;5049358;28;20539;-85
2023/06/29 05:35:40;;;;;;;4.25;3.97;;;;;;;-146.25;100.00;57403.91;5050361;28;20195;-85
2023/06/29 05:38:07;;;;;;;3.33;3.13;;;;;;;-146.25;100.00;57403.91;5050093;28;20298;-87
2023/06/29 05:40:34;;;;;;;4.10;3.80;;;;;;;-146.25;100.00;57403.91;5058289;28;20215;-85
2023/06/29 05:43:02;;;;;;;3.60;3.40;;;;;;;-146.25;100.00;57403.91;5071535;28;20187;-85
2023/06/29 05:45:30;;;;;;;3.63;3.42;;;;;;;-146.25;100.00;57403.91;5053066;28;20247;-85
2023/06/29 05:47:57;;;;;;;3.80;3.58;;;;;;;-146.25;100.00;57403.91;5049188;28;20231;-86
2023/06/29 05:50:24;;;;;;;5.05;3.10;;;;;;;-146.25;100.00;57403.91;5048394;28;20257;-86
2023/06/29 05:52:51;;;;;;;3.65;3.35;;;;;;;-146.25;100.00;57403.91;5049268;28;20223;-85
2023/06/29 05:55:19;;;;;;;3.33;3.13;;;;;;;-146.25;100.00;57403.91;5049160;28;20223;-86
2023/06/29 05:57:46;;;;;;;3.60;3.40;;;;;;;-146.25;100.00;57403.91;5049080;28;20645;-85
2023/06/29 06:00:18;;;;;;;4.82;3.95;;;;;;;-146.25;100.00;57403.91;5041960;28;20215;-85
2023/06/29 06:02:45;;;;;;;3.25;3.05;;;;;;;-146.25;100.00;57403.91;5049367;28;20207;-86
2023/06/29 06:05:13;;;;;;;3.08;2.97;;;;;;;-146.25;100.00;57403.91;5059269;28;20556;-85
2023/06/29 06:07:40;;;;;;;3.00;2.90;;;;;;;-146.25;100.00;57403.91;5040368;28;20564;-84
2023/06/29 06:10:08;;;;;;;3.05;2.95;;;;;;;-146.25;100.00;57403.91;5041742;28;20218;-85
2023/06/29 06:12:36;;;;;;;3.25;3.15;;;;;;;-146.25;100.00;57403.91;5050362;28;20290;-86
2023/06/29 06:15:06;;;;;;;3.42;3.22;;;;;;;-146.25;100.00;57403.91;5046582;28;20202;-84
2023/06/29 06:17:34;;;;;;;3.95;3.08;;;;;;;-146.25;100.00;57403.91;5042643;28;20201;-84
2023/06/29 06:20:01;;;;;;;3.05;2.95;;;;;;;-146.25;100.00;57403.91;5050185;28;20219;-88
2023/06/29 06:22:28;;;;;;;2.88;2.78;;;;;;;-146.25;100.00;57403.91;5037481;28;20204;-86
2023/06/29 06:24:55;;;;;;;3.60;3.30;;;;;;;-146.25;100.00;57403.91;5050776;28;20210;-86
2023/06/29 06:27:24;;;;;;;2.53;2.42;;;;;;;-146.25;100.00;57403.91;5038040;28;20301;-87
2023/06/29 06:29:52;;;;;;;3.38;3.17;;;;;;;-146.25;100.00;57403.91;5042690;28;20281;-85
2023/06/29 06:32:24;;;;;;;3.35;3.17;;;;;;;-146.25;100.00;57403.91;5045936;28;20207;-84
2023/06/29 06:34:53;;;;;;;3.20;3.00;;;;;;;-146.25;100.00;57403.91;5047650;28;20199;-86
2023/06/29 06:37:23;;;;;;;2.55;2.42;;;;;;;-146.25;100.00;57403.91;5051853;28;20262;-85
2023/06/29 06:39:50;;;;;;;3.53;3.22;;;;;;;-146.25;100.00;57403.91;5050856;28;20761;-86
2023/06/29 06:42:19;;;;;;;3.35;3.15;;;;;;;-146.25;100.00;57403.91;5044142;28;20230;-85
2023/06/29 06:44:54;;;;;;;3.05;2.90;;;;;;;-146.25;100.00;57403.91;5043300;28;20260;-86
2023/06/29 06:47:22;;;;;;;2.97;2.88;;;;;;;-146.25;100.00;57403.91;5028208;28;20715;-87
2023/06/29 06:49:49;;;;;;;3.03;2.85;;;;;;;-146.25;100.00;57403.91;5030633;28;20238;-86
2023/06/29 06:52:18;;;;;;;3.22;2.83;;;;;;;-146.25;100.00;57403.91;5030426;28;20288;-86
2023/06/29 06:54:45;;;;;;;9.63;3.10;;;;;;;-146.25;100.00;57403.91;5029646;28;20203;-85
2023/06/29 06:57:12;;;;;;;3.00;2.90;;;;;;;-146.25;100.00;57403.91;5030239;28;20613;-85
2023/06/29 06:59:39;;;;;;;2.45;2.35;;;;;;;-146.25;100.00;57403.91;5029025;28;20207;-86
2023/06/29 07:02:07;;;;;;;2.72;2.63;;;;;;;-146.25;100.00;57403.91;5032071;28;20210;-84
2023/06/29 07:04:34;;;;;;;3.30;3.10;;;;;;;-146.25;100.00;57403.91;5044510;28;20456;-86
2023/06/29 07:07:02;;;;;;;3.10;2.97;;;;;;;-146.25;100.00;57403.91;5037318;28;20457;-85
2023/06/29 07:09:30;;;;;;;3.28;3.08;;;;;;;-146.25;100.00;57403.91;5036880;28;20202;-86
2023/06/29 07:11:58;;;;;;;3.08;2.97;;;;;;;-146.25;100.00;57403.91;5048275;28;20292;-86
2023/06/29 07:14:26;;;;;;;2.60;2.50;;;;;;;-146.25;100.00;57403.91;5026971;28;20224;-86
2023/06/29 07:16:54;;;;;;;2.50;2.35;;;;;;;-146.25;100.00;57403.91;5033168;28;20290;-86
2023/06/29 07:19:21;;;;;;;2.90;2.70;;;;;;;-146.25;100.00;57403.91;5039016;28;20284;-86
2023/06/29 07:21:49;;;;;;;3.00;2.85;;;;;;;-146.25;100.00;57403.91;5036866;28;20233;-85
2023/06/29 07:24:16;;;;;;;2.30;2.20;;;;;;;-146.25;100.00;57403.91;5042783;28;20718;-85
2023/06/29 07:26:45;;;;;;;2.88;2.67;;;;;;;-146.25;100.00;57403.91;5042644;28;20226;-87
2023/06/29 07:29:12;;;;;;;2.50;2.40;;;;;;;-146.25;100.00;57403.91;5043084;28;20219;-87
2023/06/29 07:31:39;;;;;;;2.75;2.65;;;;;;;-146.25;100.00;57403.91;5040775;28;20409;-86
2023/06/29 07:34:07;;;;;;;3.08;2.75;;;;;;;-146.25;100.00;57403.91;5041694;28;20215;-87
2023/06/29 07:36:34;;;;;;;2.85;2.65;;;;;;;-146.25;100.00;57403.91;5043590;28;20223;-86
2023/06/29 07:39:02;;;;;;;2.55;2.42;;;;;;;-146.25;100.00;57403.91;5042805;28;20231;-87
2023/06/29 07:41:28;;;;;;;2.80;2.60;;;;;;;-146.25;100.00;57403.91;5040073;28;20219;-87
2023/06/29 07:43:58;;;;;;;2.50;2.40;;;;;;;-146.25;100.00;57403.91;5046275;28;20654;-86
2023/06/29 07:46:25;;;;;;;2.67;2.57;;;;;;;-146.25;100.00;57403.91;5037110;28;20457;-88
2023/06/29 07:48:53;;;;;;;2.53;2.33;;;;;;;-146.25;100.00;57403.91;5035598;28;20466;-86
2023/06/29 07:51:21;;;;;;;2.78;2.60;;;;;;;-146.25;100.00;57403.91;5041688;28;20454;-88
2023/06/29 07:53:50;;;;;;;1.90;1.85;;;;;;;-146.25;100.00;57403.91;5050781;28;20550;-85
2023/06/29 07:56:17;;;;;;;2.05;2.00;;;;;;;-146.25;100.00;57403.91;5032794;28;20255;-86
2023/06/29 07:58:44;;;;;;;1.90;1.80;;;;;;;-146.25;100.00;57403.91;5052790;28;20321;-85
2023/06/29 08:01:12;;;;;;;2.50;2.30;;;;;;;-146.25;100.00;57403.91;5050351;28;20482;-87
2023/06/29 08:03:40;;;;;;;1.45;1.45;;;;;;;-146.25;100.00;57403.91;5046023;28;20215;-87
2023/06/29 08:06:07;;;;;;;3.92;1.50;;;;;;;-146.25;100.00;57403.91;5050670;28;20612;-86
2023/06/29 08:08:34;;;;;;;1.75;1.67;;;;;;;-146.25;100.00;57403.91;5031228;28;20243;-86
2023/06/29 08:11:02;;;;;;;1.88;1.88;;;;;;;-146.25;100.00;57403.91;5032448;28;20227;-86
2023/06/29 08:13:29;;;;;;;2.22;2.20;;;;;;;-146.25;100.00;57403.91;5031099;28;20224;-86
2023/06/29 08:15:55;;;;;;;1.92;1.92;;;;;;;-146.25;100.00;57403.91;5031476;28;20681;-87
2023/06/29 08:18:25;;;;;;;1.90;1.80;;;;;;;-146.25;100.00;57403.91;5031599;28;20223;-86
2023/06/29 08:20:52;;;;;;;1.60;1.60;;;;;;;-146.25;100.00;57403.91;5030876;28;20223;-86
2023/06/29 08:23:19;;;;;;;2.10;1.85;;;;;;;-146.25;100.00;57403.91;5031746;28;20321;-86
2023/06/29 08:26:03;;;;;;;;;;;;;;;;;;;;;
2023/06/29 08:28:31;;;;;;;1.85;1.70;;;;;;;-146.25;100.00;57403.91;5032916;28;20269;-85
2023/06/29 08:31:00;;;;;;;2.25;1.27;;;;;;;-146.25;100.00;57403.91;5052045;28;20230;-87
2023/06/29 08:33:29;;;;;;;1.92;1.73;;;;;;;-146.25;100.00;57403.91;5052173;28;20253;-88
2023/06/29 08:35:56;;;;;;;1.52;1.52;;;;;;;-146.25;100.00;57403.91;5051370;28;20223;-86
2023/06/29 08:38:24;;;;;;;1.98;1.60;;;;;;;-146.25;100.00;57403.91;5052737;28;20227;-87
2023/06/29 08:40:51;;;;;;;1.75;1.65;;;;;;;-146.25;100.00;57403.91;5052747;28;20230;-86
2023/06/29 08:43:19;;;;;;;2.20;1.73;;;;;;;-146.25;100.00;57403.91;5038200;28;20331;-87
2023/06/29 08:45:47;;;;;;;1.70;1.55;;;;;;;-146.25;100.00;57403.91;5047214;28;20222;-87
2023/06/29 08:48:15;;;;;;;1.70;1.60;;;;;;;-146.25;100.00;57403.91;5053232;28;20773;-87
2023/06/29 08:50:50;;;;;;;1.73;1.63;;;;;;;-146.25;100.00;57403.91;5040881;28;20238;-87
2023/06/29 08:53:17;;;;;;;1.27;1.27;;;;;;;-146.25;100.00;57403.91;5033084;28;20230;-86
2023/06/29 08:55:45;;;;;;;2.97;1.52;;;;;;;-146.25;100.00;57403.91;5036753;28;20230;-86
2023/06/29 08:58:13;;;;;;;1.38;1.27;;;;;;;-146.25;100.00;57403.91;5040809;28;20231;-87
2023/06/29 09:00:45;;;;;;;1.70;1.70;;;;;;;-146.25;100.00;57403.91;5042479;28;20219;-87
2023/06/29 09:03:14;;;;;;;2.25;1.98;;;;;;;-146.25;100.00;57403.91;5040454;28;20224;-85
2023/06/29 09:05:46;;;;;;;1.80;1.70;;;;;;;-146.25;100.00;57403.91;5040640;28;20216;-86
2023/06/29 09:08:13;;;;;;;2.00;1.90;;;;;;;-146.25;100.00;57403.91;5043437;28;20650;-87
2023/06/29 09:10:40;;;;;;;3.97;1.63;;;;;;;-146.25;100.00;57403.91;5040002;28;20234;-87
2023/06/29 09:13:09;;;;;;;1.90;1.80;;;;;;;-146.25;100.00;57403.91;5040923;28;20303;-87
2023/06/29 09:15:38;;;;;;;2.13;1.90;;;;;;;-146.25;100.00;57403.91;5043079;28;20559;-86
2023/06/29 09:18:05;;;;;;;1.60;1.60;;;;;;;-146.25;100.00;57403.91;5040586;28;20281;-87
2023/06/29 09:20:35;;;;;;;3.38;2.10;;;;;;;-146.25;100.00;57403.91;5058829;28;20489;-85
2023/06/29 09:23:14;;;;;;;1.85;1.73;;;;;;;-146.25;100.00;57403.91;5046383;28;20911;-86
2023/06/29 09:25:41;;;;;;;2.97;1.73;;;;;;;-146.25;100.00;57403.91;5034670;28;20227;-85
2023/06/29 09:28:10;;;;;;;1.33;1.33;;;;;;;-146.25;100.00;57403.91;5030736;28;20244;-86
2023/06/29 09:30:39;;;;;;;1.40;1.40;;;;;;;-146.25;100.00;57403.91;5051029;28;20239;-87
2023/06/29 09:33:09;;;;;;;1.58;1.20;;;;;;;-146.25;100.00;57403.91;5051976;28;20227;-88
2023/06/29 09:35:38;;;;;;;1.95;1.23;;;;;;;-146.25;100.00;57403.91;5047632;28;20223;-88
2023/06/29 09:38:07;;;;;;;1.33;1.23;;;;;;;-146.25;100.00;57403.91;5049817;28;20226;-87
2023/06/29 09:40:47;;;;;;;2.90;2.10;;;;;;;-146.25;100.00;57403.91;5053949;28;20307;-87
2023/06/29 09:43:17;;;;;;;1.35;1.27;;;;;;;-146.25;100.00;57403.91;5051371;28;20700;-86
2023/06/29 09:45:44;;;;;;;2.00;1.65;;;;;;;-146.25;100.00;57403.91;5051424;28;20253;-87
2023/06/29 09:48:13;;;;;;;1.80;1.70;;;;;;;-146.25;100.00;57403.91;5049711;28;20478;-88
2023/06/29 09:50:41;;;;;;;1.85;1.75;;;;;;;-146.25;100.00;57403.91;5047161;28;20451;-87
2023/06/29 09:53:10;;;;;;;1.80;1.70;;;;;;;-146.25;100.00;57403.91;5047045;28;20628;-88
2023/06/29 09:55:38;;;;;;;1.60;1.50;;;;;;;-146.25;100.00;57403.91;5053027;28;20228;-87
2023/06/29 09:58:08;;;;;;;1.58;1.50;;;;;;;-146.25;100.00;57403.91;5048751;28;20474;-87
2023/06/29 10:00:37;;;;;;;1.20;1.20;;;;;;;-146.25;100.00;57403.91;5051949;28;20284;-89
2023/06/29 10:03:05;;;;;;;1.27;1.27;;;;;;;-146.25;100.00;57403.91;5049873;28;20245;-89
2023/06/29 10:05:32;;;;;;;1.40;1.40;;;;;;;-146.25;100.00;57403.91;5044631;28;20230;-88
2023/06/29 10:08:04;;;;;;;1.52;1.45;;;;;;;-146.25;100.00;57403.91;5052202;28;20232;-87
2023/06/29 10:10:36;;;;;;;1.48;1.40;;;;;;;-146.25;100.00;57403.91;5037389;28;20310;-87
2023/06/29 10:13:06;;;;;;;1.70;1.60;;;;;;;-146.25;100.00;57403.91;5039595;28;20262;-86
2023/06/29 10:15:36;;;;;;;2.05;1.05;;;;;;;-146.25;100.00;57403.91;5039053;28;20224;-87
2023/06/29 10:18:09;;;;;;;2.35;2.15;;;;;;;-146.25;100.00;57403.91;5044301;28;20435;-88
2023/06/29 10:20:41;;;;;;;1.55;1.50;;;;;;;-146.25;100.00;57403.91;5044174;28;20668;-87
2023/06/29 10:23:09;;;;;;;3.72;3.42;;;;;;;-146.25;100.00;57403.91;5039261;28;20227;-87
2023/06/29 10:25:42;;;;;;;2.20;2.10;;;;;;;-146.25;100.00;57403.91;5042806;28;20224;-87
2023/06/29 10:28:21;;;;;;;1.50;1.40;;;;;;;-146.25;100.00;57403.91;5044353;28;20467;-88
2023/06/29 10:30:50;;;;;;;1.58;1.17;;;;;;;-146.25;100.00;57403.91;5046322;28;20353;-89
2023/06/29 10:33:22;;;;;;;1.38;1.38;;;;;;;-146.25;100.00;57403.91;5043668;28;20768;-87
2023/06/29 10:35:55;;;;;;;1.33;1.30;;;;;;;-146.25;100.00;57403.91;5039041;28;20231;-85
2023/06/29 10:38:32;;;;;;;1.23;1.23;;;;;;;-146.25;100.00;57403.91;5051193;28;20755;-88
2023/06/29 10:41:07;;;;;;;0.88;0.88;;;;;;;-146.25;100.00;57403.91;5052210;28;20325;-88
2023/06/29 10:43:55;;;;;;;2.10;1.33;;;;;;;-146.25;100.00;57403.91;5051949;28;20480;-87
2023/06/29 10:46:47;;;;;;;0.98;0.98;;;;;;;-146.25;100.00;57403.91;5054217;28;20230;-87
2023/06/29 10:49:24;;;;;;;1.60;1.52;;;;;;;-146.25;100.00;57403.91;5035034;28;20246;-87
2023/06/29 10:51:53;;;;;;;1.10;1.00;;;;;;;-146.25;100.00;57403.91;5036494;28;20218;-88
2023/06/29 10:54:24;;;;;;;1.60;1.50;;;;;;;-146.25;100.00;57403.91;5048149;28;20617;-87
2023/06/29 10:57:00;;;;;;;1.45;1.45;;;;;;;-146.25;100.00;57403.91;5011499;28;20282;-86
2023/06/29 10:59:28;;;;;;;1.98;1.63;;;;;;;-146.25;100.00;57403.91;5037968;28;20443;-86
2023/06/29 11:01:55;;;;;;;1.25;1.25;;;;;;;-146.25;100.00;57403.91;5049615;28;20224;-87
2023/06/29 11:04:23;;;;;;;1.00;1.00;;;;;;;-146.25;100.00;57403.91;5048481;28;20657;-87
2023/06/29 11:06:51;;;;;;;0.90;0.90;;;;;;;-146.25;100.00;57403.91;5047267;28;20227;-88
2023/06/29 11:09:19;;;;;;;1.27;1.05;;;;;;;-146.25;100.00;57403.91;5047840;28;20304;-87
2023/06/29 11:11:48;;;;;;;1.08;1.08;;;;;;;-146.25;100.00;57403.91;5046295;28;20250;-87
2023/06/29 11:14:18;;;;;;;0.90;0.90;;;;;;;-146.25;100.00;57403.91;5048000;28;20314;-86